Time;durP1;ratioP1;P1;durP2;ratioP2;P2;SDS_P1;SDS_P2;PMS_P1;PMS_P2;Temp;Humidity;BMP_temperature;BMP_pressure;BME280_temperature;BME280_humidity;BME280_pressure;Samples;Min_cycle;Max_cycle;Signal;HPM_P1;HPM_P2
2021/11/15 00:01:33;;;;;;;62.17;24.47;;;6.60;99.90;;;;;;5111487;28;20208;-78
2021/11/15 00:04:01;;;;;;;49.90;23.20;;;6.60;99.90;;;;;;5099684;28;20785;-78
2021/11/15 00:06:28;;;;;;;58.70;24.57;;;6.60;99.90;;;;;;5113608;28;20663;-79
2021/11/15 00:08:54;;;;;;;64.63;26.50;;;6.60;99.90;;;;;;5112895;28;20208;-78
2021/11/15 00:11:21;;;;;;;69.70;27.77;;;6.50;99.90;;;;;;5099790;28;20225;-78
2021/11/15 00:13:48;;;;;;;64.33;26.77;;;6.50;99.90;;;;;;5111310;28;20193;-79
2021/11/15 00:16:15;;;;;;;71.10;26.17;;;6.50;99.90;;;;;;5099945;28;20202;-78
2021/11/15 00:18:42;;;;;;;64.80;25.57;;;6.50;99.90;;;;;;5110344;28;20197;-77
2021/11/15 00:21:10;;;;;;;71.40;27.80;;;6.50;99.90;;;;;;5112276;28;20229;-78
2021/11/15 00:23:37;;;;;;;64.27;25.83;;;6.50;99.90;;;;;;5103973;28;20220;-78
2021/11/15 00:26:04;;;;;;;64.80;25.30;;;6.50;99.90;;;;;;5112023;28;20199;-77
2021/11/15 00:28:31;;;;;;;62.33;23.70;;;6.50;99.90;;;;;;5094233;28;20213;-77
2021/11/15 00:30:58;;;;;;;66.50;23.37;;;6.50;99.90;;;;;;5100047;28;20201;-78
2021/11/15 00:33:25;;;;;;;71.67;25.47;;;6.40;99.90;;;;;;5105298;28;20189;-77
2021/11/15 00:35:52;;;;;;;70.27;25.43;;;6.40;99.90;;;;;;5112868;28;20204;-77
2021/11/15 00:38:20;;;;;;;66.70;25.00;;;6.40;99.90;;;;;;5097287;28;20205;-78
2021/11/15 00:40:47;;;;;;;65.53;25.00;;;6.40;99.90;;;;;;5102065;28;20215;-78
2021/11/15 00:43:14;;;;;;;66.07;25.60;;;6.40;99.90;;;;;;5111792;28;20231;-78
2021/11/15 00:45:41;;;;;;;68.57;24.77;;;6.40;99.90;;;;;;5102072;28;20204;-78
2021/11/15 00:48:09;;;;;;;72.17;27.17;;;6.40;99.90;;;;;;5098504;28;20306;-78
2021/11/15 00:50:36;;;;;;;66.93;24.13;;;6.40;99.90;;;;;;5108045;28;20193;-78
2021/11/15 00:53:03;;;;;;;70.10;26.73;;;6.40;99.90;;;;;;5097752;28;20205;-78
2021/11/15 00:55:32;;;;;;;76.40;26.80;;;6.40;99.90;;;;;;5106800;28;20193;-78
2021/11/15 00:57:59;;;;;;;64.67;25.23;;;6.40;99.90;;;;;;5111729;28;20254;-79
2021/11/15 01:00:30;;;;;;;67.43;25.63;;;6.40;99.90;;;;;;5111508;28;20193;-78
2021/11/15 01:02:58;;;;;;;61.03;24.37;;;6.40;99.90;;;;;;5103431;28;20710;-78
2021/11/15 01:05:27;;;;;;;61.80;23.50;;;6.40;99.90;;;;;;5111527;28;20626;-78
2021/11/15 01:07:54;;;;;;;60.77;20.50;;;6.40;99.90;;;;;;5098851;28;20306;-77
2021/11/15 01:10:22;;;;;;;59.07;20.30;;;6.40;99.90;;;;;;5109093;28;20207;-78
2021/11/15 01:12:52;;;;;;;62.20;21.03;;;6.20;99.90;;;;;;5111899;28;20561;-77
2021/11/15 01:15:22;;;;;;;51.40;18.90;;;6.30;99.90;;;;;;5112351;28;20193;-78
2021/11/15 01:17:52;;;;;;;56.57;18.80;;;6.30;99.90;;;;;;5099926;28;20202;-77
2021/11/15 01:20:21;;;;;;;47.30;16.57;;;6.30;99.90;;;;;;5093241;28;20201;-78
2021/11/15 01:22:48;;;;;;;52.43;19.33;;;6.20;99.90;;;;;;5100615;28;20212;-78
2021/11/15 01:25:17;;;;;;;46.50;17.30;;;6.30;99.90;;;;;;5094572;28;20240;-78
2021/11/15 01:27:44;;;;;;;47.23;16.70;;;6.30;99.90;;;;;;5109892;28;20223;-79
2021/11/15 01:30:15;;;;;;;57.57;20.03;;;6.20;99.90;;;;;;5111267;28;20208;-78
2021/11/15 01:32:43;;;;;;;46.87;18.00;;;6.20;99.90;;;;;;5111487;28;20209;-79
2021/11/15 01:35:11;;;;;;;44.83;17.20;;;6.20;99.90;;;;;;5112669;28;20205;-70
2021/11/15 01:37:39;;;;;;;51.87;18.00;;;6.20;99.90;;;;;;5089215;28;20247;-70
2021/11/15 01:40:12;;;;;;;46.53;18.20;;;6.20;99.90;;;;;;5091094;28;20255;-70
2021/11/15 01:42:42;;;;;;;47.83;16.13;;;6.20;99.90;;;;;;5092996;28;20387;-70
2021/11/15 01:45:10;;;;;;;44.30;17.00;;;6.20;99.90;;;;;;5109877;28;20717;-70
2021/11/15 01:47:43;;;;;;;44.87;17.47;;;6.20;99.90;;;;;;5094473;28;20212;-70
2021/11/15 01:50:15;;;;;;;49.80;18.23;;;6.20;99.90;;;;;;5111007;28;20201;-70
2021/11/15 01:52:43;;;;;;;47.57;17.87;;;6.20;99.90;;;;;;5090481;28;20221;-69
2021/11/15 01:55:11;;;;;;;54.03;20.07;;;6.20;99.90;;;;;;5091733;28;20674;-70
2021/11/15 01:57:38;;;;;;;48.83;18.40;;;6.20;99.90;;;;;;5108782;28;20649;-70
2021/11/15 02:00:08;;;;;;;47.27;17.27;;;6.20;99.90;;;;;;5110141;28;20201;-69
2021/11/15 02:02:35;;;;;;;48.13;17.93;;;6.10;99.90;;;;;;5091177;28;20201;-70
2021/11/15 02:05:04;;;;;;;49.80;17.77;;;6.20;99.90;;;;;;5110046;28;20258;-70
2021/11/15 02:07:31;;;;;;;53.13;19.27;;;6.10;99.90;;;;;;5101247;28;20259;-70
2021/11/15 02:09:58;;;;;;;49.50;18.07;;;6.10;99.90;;;;;;5108640;28;20254;-70
2021/11/15 02:12:26;;;;;;;50.07;18.63;;;6.10;99.90;;;;;;5100422;28;20229;-69
2021/11/15 02:14:53;;;;;;;51.63;19.33;;;6.10;99.90;;;;;;5091851;28;20202;-69
2021/11/15 02:17:20;;;;;;;53.20;20.37;;;6.10;99.90;;;;;;5103070;28;20202;-70
2021/11/15 02:19:48;;;;;;;52.63;20.07;;;6.10;99.90;;;;;;5094153;28;20235;-69
2021/11/15 02:22:16;;;;;;;57.40;20.83;;;6.10;99.90;;;;;;5103252;28;20704;-69
2021/11/15 02:24:44;;;;;;;59.63;21.80;;;6.10;99.90;;;;;;5093331;28;20221;-70
2021/11/15 02:27:12;;;;;;;52.87;19.87;;;6.10;99.90;;;;;;5110487;28;20197;-70
2021/11/15 02:29:39;;;;;;;50.63;20.03;;;6.10;99.90;;;;;;5112719;28;20298;-69
2021/11/15 02:32:07;;;;;;;53.00;21.67;;;6.10;99.90;;;;;;5106972;28;20496;-69
2021/11/15 02:34:34;;;;;;;51.70;21.27;;;6.10;99.90;;;;;;5106512;28;20242;-69
2021/11/15 02:37:01;;;;;;;51.43;21.77;;;6.20;99.90;;;;;;5113528;28;20228;-69
2021/11/15 02:39:30;;;;;;;54.23;21.90;;;6.20;99.90;;;;;;5114120;28;20196;-69
2021/11/15 02:41:57;;;;;;;56.13;20.63;;;6.20;99.90;;;;;;5108714;28;20237;-69
2021/11/15 02:44:28;;;;;;;54.73;20.70;;;6.20;99.90;;;;;;5094889;28;20213;-69
2021/11/15 02:46:55;;;;;;;49.77;21.07;;;6.20;99.90;;;;;;5108233;28;20245;-69
2021/11/15 02:49:22;;;;;;;52.83;21.77;;;6.30;99.90;;;;;;5114163;28;20643;-70
2021/11/15 02:51:50;;;;;;;60.00;23.37;;;6.20;99.90;;;;;;5108953;28;20259;-69
2021/11/15 02:54:20;;;;;;;60.20;23.50;;;6.30;99.90;;;;;;5106662;28;20281;-70
2021/11/15 02:56:48;;;;;;;56.03;24.00;;;6.20;99.90;;;;;;5110500;28;20292;-70
2021/11/15 02:59:15;;;;;;;59.90;24.10;;;6.30;99.90;;;;;;5113690;28;20650;-69
2021/11/15 03:01:46;;;;;;;62.33;24.07;;;6.30;99.90;;;;;;5107998;28;20210;-69
2021/11/15 03:04:13;;;;;;;56.47;25.07;;;6.30;99.90;;;;;;5110855;28;20233;-69
2021/11/15 03:06:40;;;;;;;59.97;25.00;;;6.30;99.90;;;;;;5113079;28;20674;-69
2021/11/15 03:09:07;;;;;;;64.93;24.93;;;6.20;99.90;;;;;;5111981;28;20566;-70
2021/11/15 03:11:35;;;;;;;69.50;26.40;;;6.30;99.90;;;;;;5110678;28;20250;-70
2021/11/15 03:14:03;;;;;;;66.40;26.83;;;6.30;99.90;;;;;;5111220;28;20653;-69
2021/11/15 03:16:30;;;;;;;65.73;24.87;;;6.30;99.90;;;;;;5109746;28;20537;-69
2021/11/15 03:18:57;;;;;;;73.37;29.23;;;6.30;99.90;;;;;;5108270;28;20236;-69
2021/11/15 03:21:25;;;;;;;73.17;29.70;;;6.30;99.90;;;;;;5110297;28;20243;-69
2021/11/15 03:23:54;;;;;;;67.90;27.03;;;6.30;99.90;;;;;;5105192;28;20243;-69
2021/11/15 03:26:22;;;;;;;75.30;27.87;;;6.30;99.90;;;;;;5102091;28;20921;-69
2021/11/15 03:28:53;;;;;;;72.70;27.37;;;6.30;99.90;;;;;;5105057;28;20205;-69
2021/11/15 03:31:24;;;;;;;75.47;29.37;;;6.30;99.90;;;;;;5109786;28;20568;-69
2021/11/15 03:33:53;;;;;;;73.77;29.03;;;6.30;99.90;;;;;;5107818;28;20622;-69
2021/11/15 03:36:20;;;;;;;68.73;28.23;;;6.30;99.90;;;;;;5109908;28;20201;-69
2021/11/15 03:38:48;;;;;;;68.00;28.70;;;6.30;99.90;;;;;;5104671;28;20239;-69
2021/11/15 03:41:16;;;;;;;68.00;28.93;;;6.30;99.90;;;;;;5100498;28;20266;-69
2021/11/15 03:43:43;;;;;;;67.57;29.43;;;6.40;99.90;;;;;;5103483;28;20205;-69
2021/11/15 03:46:10;;;;;;;66.70;28.80;;;6.40;99.90;;;;;;5110597;28;20225;-69
2021/11/15 03:48:39;;;;;;;69.43;28.50;;;6.40;99.90;;;;;;5107675;28;20200;-69
2021/11/15 03:51:06;;;;;;;70.87;29.03;;;6.40;99.90;;;;;;5108285;28;20615;-69
2021/11/15 03:53:38;;;;;;;71.80;30.37;;;6.40;99.90;;;;;;5107137;28;20205;-69
2021/11/15 03:56:08;;;;;;;76.93;28.17;;;6.40;99.90;;;;;;5106901;28;20193;-69
2021/11/15 03:58:35;;;;;;;77.97;31.43;;;6.30;99.90;;;;;;5109001;28;20215;-70
2021/11/15 04:01:03;;;;;;;74.23;30.27;;;6.30;99.90;;;;;;5107359;28;20262;-69
2021/11/15 04:03:32;;;;;;;64.93;29.13;;;6.30;99.90;;;;;;5112108;28;20615;-70
2021/11/15 04:06:04;;;;;;;71.20;29.57;;;6.30;99.90;;;;;;5111381;28;20743;-70
2021/11/15 04:08:33;;;;;;;69.30;28.33;;;6.30;99.90;;;;;;5108486;28;20216;-69
2021/11/15 04:11:01;;;;;;;63.13;27.47;;;6.30;99.90;;;;;;5107856;28;20290;-69
2021/11/15 04:13:31;;;;;;;59.57;27.60;;;6.20;99.90;;;;;;5108812;28;20287;-69
2021/11/15 04:16:01;;;;;;;72.47;28.80;;;6.20;99.90;;;;;;5112275;28;20839;-69
2021/11/15 04:18:33;;;;;;;57.73;26.13;;;6.20;99.90;;;;;;5111548;28;20200;-69
2021/11/15 04:21:07;;;;;;;59.13;26.43;;;6.10;99.90;;;;;;5109673;28;20261;-70
2021/11/15 04:23:35;;;;;;;53.17;26.53;;;6.10;99.90;;;;;;5103957;28;20614;-70
2021/11/15 04:26:03;;;;;;;58.60;26.40;;;6.10;99.90;;;;;;5107197;28;20224;-69
2021/11/15 04:28:30;;;;;;;55.93;26.30;;;6.00;99.90;;;;;;5111075;28;20246;-70
2021/11/15 04:30:57;;;;;;;54.47;26.97;;;6.00;99.90;;;;;;5107745;28;20192;-69
2021/11/15 04:33:24;;;;;;;56.87;27.87;;;6.00;99.90;;;;;;5106930;28;20241;-70
2021/11/15 04:35:53;;;;;;;57.03;25.97;;;6.00;99.90;;;;;;5104772;28;20209;-70
2021/11/15 04:38:22;;;;;;;55.17;25.30;;;6.00;99.90;;;;;;5106556;28;20602;-69
2021/11/15 04:40:50;;;;;;;54.00;25.57;;;6.00;99.90;;;;;;5110816;28;20250;-70
2021/11/15 04:43:17;;;;;;;51.30;23.77;;;6.00;99.90;;;;;;5109754;28;20205;-69
2021/11/15 04:45:44;;;;;;;57.07;26.63;;;5.90;99.90;;;;;;5103150;28;20266;-70
2021/11/15 04:48:11;;;;;;;49.43;23.37;;;5.90;99.90;;;;;;5100156;28;20245;-70
2021/11/15 04:50:39;;;;;;;46.37;23.27;;;5.90;99.90;;;;;;5105713;28;20197;-70
2021/11/15 04:53:06;;;;;;;48.67;24.80;;;5.90;99.90;;;;;;5098184;28;20201;-70
2021/11/15 04:55:38;;;;;;;49.93;24.07;;;5.90;99.90;;;;;;5104134;28;20205;-70
2021/11/15 04:58:06;;;;;;;44.27;22.50;;;5.90;99.90;;;;;;5102568;28;20212;-70
2021/11/15 05:00:35;;;;;;;44.73;23.33;;;5.90;99.90;;;;;;5109700;28;20252;-70
2021/11/15 05:03:02;;;;;;;46.07;23.23;;;5.90;99.90;;;;;;5106018;28;20201;-78
2021/11/15 05:05:29;;;;;;;47.57;22.97;;;5.90;99.90;;;;;;5096375;28;20226;-70
2021/11/15 05:07:57;;;;;;;47.23;23.87;;;5.90;99.90;;;;;;5092186;28;20216;-70
2021/11/15 05:10:25;;;;;;;46.97;23.10;;;5.90;99.90;;;;;;5099797;28;20197;-70
2021/11/15 05:12:55;;;;;;;44.13;21.70;;;5.90;99.90;;;;;;5110809;28;20197;-69
2021/11/15 05:15:22;;;;;;;41.10;20.47;;;5.90;99.90;;;;;;5109528;28;20236;-70
2021/11/15 05:17:50;;;;;;;45.10;22.17;;;5.90;99.90;;;;;;5110933;28;20197;-70
2021/11/15 05:20:19;;;;;;;47.07;22.53;;;5.80;99.90;;;;;;5111701;28;20214;-70
2021/11/15 05:22:46;;;;;;;45.33;22.43;;;5.90;99.90;;;;;;5102138;28;20206;-70
2021/11/15 05:25:15;;;;;;;46.13;21.73;;;5.90;99.90;;;;;;5096881;28;20674;-70
2021/11/15 05:27:42;;;;;;;40.80;20.63;;;5.90;99.90;;;;;;5109345;28;20291;-70
2021/11/15 05:30:14;;;;;;;42.20;20.17;;;5.90;99.90;;;;;;5110340;28;20719;-70
2021/11/15 05:32:41;;;;;;;44.53;20.70;;;5.90;99.90;;;;;;5110480;28;20715;-70
2021/11/15 05:35:09;;;;;;;43.47;21.00;;;5.90;99.90;;;;;;5111347;28;20262;-69
2021/11/15 05:37:36;;;;;;;43.90;21.37;;;5.80;99.90;;;;;;5110751;28;20197;-70
2021/11/15 05:40:05;;;;;;;44.23;21.67;;;5.90;99.90;;;;;;5111056;28;20205;-70
2021/11/15 05:42:32;;;;;;;44.80;21.97;;;5.90;99.90;;;;;;5111661;28;20254;-69
2021/11/15 05:45:00;;;;;;;42.33;21.03;;;5.90;99.90;;;;;;5111657;28;20632;-70
2021/11/15 05:47:28;;;;;;;43.23;20.83;;;5.90;99.90;;;;;;5110735;28;20212;-70
2021/11/15 05:49:55;;;;;;;45.20;22.30;;;5.90;99.90;;;;;;5112758;28;20250;-70
2021/11/15 05:52:23;;;;;;;42.87;20.83;;;5.90;99.90;;;;;;5113347;28;20205;-70
2021/11/15 05:54:50;;;;;;;40.27;19.47;;;5.90;99.90;;;;;;5115243;28;20262;-70
2021/11/15 05:57:18;;;;;;;36.73;18.80;;;5.90;99.90;;;;;;5114694;28;20249;-70
2021/11/15 05:59:45;;;;;;;44.30;20.80;;;5.90;99.90;;;;;;5099375;28;20263;-70
2021/11/15 06:02:12;;;;;;;42.30;21.03;;;5.90;99.90;;;;;;5100686;28;20708;-69
2021/11/15 06:04:41;;;;;;;37.47;20.03;;;5.90;99.90;;;;;;5102575;28;20565;-70
2021/11/15 06:07:08;;;;;;;40.67;19.97;;;5.90;99.90;;;;;;5114625;28;20669;-70
2021/11/15 06:09:35;;;;;;;37.73;18.40;;;5.90;99.90;;;;;;5114078;28;20238;-70
2021/11/15 06:12:02;;;;;;;38.20;19.10;;;5.90;99.90;;;;;;5115106;28;20645;-70
2021/11/15 06:14:29;;;;;;;38.13;18.67;;;5.90;99.90;;;;;;5114656;28;20679;-70
2021/11/15 06:16:56;;;;;;;39.53;19.80;;;5.90;99.90;;;;;;5112871;28;20201;-78
2021/11/15 06:19:23;;;;;;;36.63;18.30;;;5.90;99.90;;;;;;5102518;28;20245;-84
2021/11/15 06:21:51;;;;;;;40.27;18.60;;;5.90;99.90;;;;;;5105118;28;20250;-82
2021/11/15 06:24:18;;;;;;;40.23;20.40;;;5.90;99.90;;;;;;5107046;28;20205;-77
2021/11/15 06:26:45;;;;;;;40.40;19.73;;;5.90;99.90;;;;;;5110703;28;20330;-75
2021/11/15 06:29:12;;;;;;;42.40;21.37;;;5.90;99.90;;;;;;5103428;28;20193;-80
2021/11/15 06:31:39;;;;;;;44.80;20.23;;;5.90;99.90;;;;;;5111514;28;20189;-76
2021/11/15 06:34:06;;;;;;;45.07;21.80;;;5.90;99.90;;;;;;5111231;28;20233;-70
2021/11/15 06:36:34;;;;;;;47.10;24.90;;;5.90;99.90;;;;;;5110938;28;20293;-73
2021/11/15 06:39:02;;;;;;;43.53;24.30;;;5.90;99.90;;;;;;5108428;28;20213;-70
2021/11/15 06:41:29;;;;;;;49.33;24.10;;;5.90;99.90;;;;;;5113207;28;20689;-70
2021/11/15 06:43:56;;;;;;;50.13;23.23;;;5.90;99.90;;;;;;5113959;28;20980;-70
2021/11/15 06:46:24;;;;;;;48.57;24.50;;;5.80;99.90;;;;;;5113413;28;20213;-70
2021/11/15 06:48:51;;;;;;;46.40;22.43;;;5.80;99.90;;;;;;5113957;28;20240;-70
2021/11/15 06:51:18;;;;;;;45.83;22.87;;;5.80;99.90;;;;;;5114517;28;20312;-70
2021/11/15 06:53:45;;;;;;;47.03;22.50;;;5.80;99.90;;;;;;5113522;28;20251;-70
2021/11/15 06:56:13;;;;;;;51.37;23.80;;;5.90;99.90;;;;;;5114805;28;20220;-70
2021/11/15 06:58:40;;;;;;;46.80;23.03;;;5.90;99.90;;;;;;5107737;28;20201;-70
2021/11/15 07:01:07;;;;;;;44.90;21.90;;;5.90;99.90;;;;;;5092702;28;20247;-70
2021/11/15 07:03:35;;;;;;;46.60;23.80;;;5.90;99.90;;;;;;5109499;28;20232;-70
2021/11/15 07:06:02;;;;;;;43.67;22.37;;;5.90;99.90;;;;;;5114231;28;20229;-71
2021/11/15 07:08:29;;;;;;;45.20;22.33;;;5.90;99.90;;;;;;5108887;28;20197;-70
2021/11/15 07:10:56;;;;;;;46.10;21.80;;;5.90;99.90;;;;;;5092021;28;20208;-70
2021/11/15 07:13:25;;;;;;;45.33;20.60;;;6.20;99.90;;;;;;5108135;28;20193;-70
2021/11/15 07:15:52;;;;;;;47.37;22.77;;;6.00;99.90;;;;;;5114323;28;20278;-70
2021/11/15 07:18:19;;;;;;;40.77;20.23;;;6.00;99.90;;;;;;5112334;28;20587;-70
2021/11/15 07:20:47;;;;;;;44.00;20.37;;;6.00;99.90;;;;;;5097931;28;20213;-70
2021/11/15 07:23:14;;;;;;;47.63;22.83;;;6.00;99.90;;;;;;5099164;28;20244;-70
2021/11/15 07:25:41;;;;;;;45.27;21.17;;;5.90;99.90;;;;;;5093498;28;20675;-70
2021/11/15 07:28:08;;;;;;;43.57;21.07;;;6.00;99.90;;;;;;5100135;28;20197;-70
2021/11/15 07:30:38;;;;;;;45.17;20.57;;;5.90;99.90;;;;;;5093672;28;20201;-70
2021/11/15 07:33:05;;;;;;;40.33;21.13;;;6.00;99.90;;;;;;5098780;28;20667;-70
2021/11/15 07:35:33;;;;;;;44.20;20.67;;;6.00;99.90;;;;;;5103101;28;20209;-70
2021/11/15 07:38:00;;;;;;;41.03;19.83;;;6.00;99.90;;;;;;5093954;28;20201;-71
2021/11/15 07:40:27;;;;;;;40.93;20.90;;;6.00;99.90;;;;;;5103020;28;20549;-70
2021/11/15 07:42:54;;;;;;;42.57;19.10;;;6.00;99.90;;;;;;5106925;28;20464;-70
2021/11/15 07:45:21;;;;;;;39.83;20.40;;;6.10;99.90;;;;;;5105664;28;20196;-75
2021/11/15 07:47:50;;;;;;;43.03;20.33;;;6.00;99.90;;;;;;5101724;28;20205;-75
2021/11/15 07:50:18;;;;;;;39.70;17.73;;;6.10;99.90;;;;;;5106636;28;20197;-75
2021/11/15 07:52:45;;;;;;;41.67;19.97;;;6.00;99.90;;;;;;5102721;28;20212;-75
2021/11/15 07:55:14;;;;;;;42.93;19.73;;;6.10;99.90;;;;;;5102683;28;20628;-75
2021/11/15 07:57:41;;;;;;;48.90;23.03;;;6.10;99.90;;;;;;5104545;28;20227;-75
2021/11/15 08:00:11;;;;;;;44.20;20.10;;;6.10;99.90;;;;;;5092689;28;20205;-75
2021/11/15 08:02:39;;;;;;;41.67;21.67;;;6.10;99.90;;;;;;5093195;28;20197;-75
2021/11/15 08:05:09;;;;;;;37.43;18.77;;;6.10;99.90;;;;;;5087842;28;20201;-73
2021/11/15 08:07:36;;;;;;;40.83;19.87;;;6.10;99.90;;;;;;5089335;28;20232;-69
2021/11/15 08:10:04;;;;;;;42.37;20.43;;;6.10;99.90;;;;;;5102842;28;20405;-70
2021/11/15 08:12:36;;;;;;;44.27;21.63;;;6.10;99.90;;;;;;5105135;28;20200;-69
2021/11/15 08:15:06;;;;;;;45.40;19.67;;;6.10;99.90;;;;;;5104577;28;20237;-76
2021/11/15 08:17:33;;;;;;;47.90;21.53;;;6.10;99.90;;;;;;5103469;28;20201;-76
2021/11/15 08:20:01;;;;;;;47.20;21.23;;;6.10;99.90;;;;;;5105283;28;20201;-76
2021/11/15 08:22:30;;;;;;;45.60;21.13;;;6.10;99.90;;;;;;5101880;28;20204;-76
2021/11/15 08:25:45;;;;;;;45.23;20.97;;;6.10;99.90;;;;;;5100643;28;20559;-76
2021/11/15 08:28:12;;;;;;;45.37;22.20;;;6.10;99.90;;;;;;5100454;28;20681;-76
2021/11/15 08:30:39;;;;;;;45.27;21.57;;;6.20;99.90;;;;;;5104294;28;20208;-69
2021/11/15 08:33:07;;;;;;;46.60;21.03;;;6.10;99.90;;;;;;5105786;28;20618;-69
2021/11/15 08:35:34;;;;;;;47.47;23.23;;;6.10;99.90;;;;;;5111661;28;20552;-69
2021/11/15 08:38:42;;;;;;;48.17;21.73;;;6.10;99.90;;;;;;5109160;28;20209;-69
2021/11/15 08:41:10;;;;;;;47.60;19.97;;;6.10;99.90;;;;;;5105117;28;20273;-69
2021/11/15 08:43:37;;;;;;;48.73;21.73;;;6.10;99.90;;;;;;5103368;28;20255;-69
2021/11/15 08:46:07;;;;;;;49.23;21.40;;;6.20;99.90;;;;;;5090247;28;20213;-69
2021/11/15 08:48:34;;;;;;;46.13;22.23;;;6.20;99.90;;;;;;5111042;28;20212;-69
2021/11/15 08:51:04;;;;;;;46.67;21.37;;;6.20;99.90;;;;;;5111704;28;20201;-69
2021/11/15 08:53:33;;;;;;;48.17;21.30;;;6.20;99.90;;;;;;5105714;28;20213;-69
2021/11/15 08:56:00;;;;;;;43.80;21.37;;;6.20;99.90;;;;;;5094907;28;20193;-69
2021/11/15 08:58:27;;;;;;;46.63;21.77;;;6.20;99.90;;;;;;5109696;28;20209;-69
2021/11/15 09:00:55;;;;;;;42.93;20.23;;;6.30;99.90;;;;;;5096406;28;20262;-69
2021/11/15 09:03:22;;;;;;;46.27;22.40;;;6.20;99.90;;;;;;5100768;28;20253;-70
2021/11/15 09:05:50;;;;;;;47.00;22.97;;;6.20;99.90;;;;;;5099155;28;20217;-69
2021/11/15 09:08:17;;;;;;;44.73;21.67;;;6.20;99.90;;;;;;5094616;28;20209;-69
2021/11/15 09:10:46;;;;;;;43.67;20.93;;;6.20;99.90;;;;;;5100568;28;20258;-69
2021/11/15 09:13:13;;;;;;;45.37;19.60;;;6.30;99.90;;;;;;5102954;28;20641;-69
2021/11/15 09:15:41;;;;;;;49.40;22.03;;;6.20;99.90;;;;;;5104819;28;20196;-69
2021/11/15 09:18:08;;;;;;;44.30;20.77;;;6.30;99.90;;;;;;5104202;28;20254;-69
2021/11/15 09:20:35;;;;;;;47.53;21.07;;;6.30;99.90;;;;;;5105313;28;20232;-69
2021/11/15 09:23:02;;;;;;;42.47;19.63;;;6.30;99.90;;;;;;5099261;28;20372;-69
2021/11/15 09:25:30;;;;;;;43.83;19.77;;;6.30;99.90;;;;;;5105559;28;20663;-69
2021/11/15 09:27:58;;;;;;;44.73;21.47;;;6.30;99.90;;;;;;5106611;28;20260;-69
2021/11/15 09:30:26;;;;;;;41.07;20.47;;;6.30;99.90;;;;;;5109681;28;20724;-69
2021/11/15 09:32:53;;;;;;;43.90;20.87;;;6.30;99.90;;;;;;5106307;28;20561;-69
2021/11/15 09:35:20;;;;;;;45.40;21.10;;;6.30;99.90;;;;;;5108258;28;20632;-70
2021/11/15 09:37:48;;;;;;;42.30;19.90;;;6.30;99.90;;;;;;5107707;28;20698;-70
2021/11/15 09:40:15;;;;;;;39.57;19.47;;;6.30;99.90;;;;;;5090233;28;20209;-69
2021/11/15 09:42:42;;;;;;;39.10;21.27;;;6.30;99.90;;;;;;5098588;28;20724;-69
2021/11/15 09:45:12;;;;;;;42.77;20.83;;;6.40;99.90;;;;;;5108140;28;20205;-69
2021/11/15 09:47:40;;;;;;;44.53;20.43;;;6.40;99.90;;;;;;5106593;28;20305;-69
2021/11/15 09:50:10;;;;;;;41.47;20.80;;;6.40;99.90;;;;;;5095790;28;20201;-69
2021/11/15 09:52:37;;;;;;;44.47;21.90;;;6.40;99.90;;;;;;5106811;28;20240;-69
2021/11/15 09:55:06;;;;;;;39.43;18.47;;;6.50;99.90;;;;;;5113206;28;20197;-69
2021/11/15 09:57:36;;;;;;;40.17;19.90;;;6.40;99.90;;;;;;5111275;28;20212;-69
2021/11/15 10:00:05;;;;;;;44.73;20.87;;;6.40;99.90;;;;;;5113278;28;20262;-69
2021/11/15 10:02:34;;;;;;;40.77;20.60;;;6.40;99.90;;;;;;5114079;28;20580;-69
2021/11/15 10:05:01;;;;;;;43.77;20.37;;;6.40;99.90;;;;;;5114931;28;20197;-69
2021/11/15 10:07:40;;;;;;;37.00;20.40;;;6.40;99.90;;;;;;5107009;28;20566;-69
2021/11/15 10:10:34;;;;;;;41.63;20.77;;;6.50;99.90;;;;;;5112382;28;20266;-69
2021/11/15 10:13:20;;;;;;;40.97;20.67;;;6.50;99.90;;;;;;5110025;28;20221;-69
2021/11/15 10:15:50;;;;;;;46.33;21.70;;;6.50;99.90;;;;;;5095110;28;20728;-69
2021/11/15 10:18:29;;;;;;;45.80;22.83;;;6.50;99.90;;;;;;5112142;28;20209;-70
2021/11/15 10:20:56;;;;;;;43.47;22.33;;;6.50;99.90;;;;;;5114596;28;20226;-70
2021/11/15 10:23:28;;;;;;;42.60;22.17;;;6.50;99.90;;;;;;5114193;28;20205;-70
2021/11/15 10:25:59;;;;;;;45.10;23.67;;;6.60;99.90;;;;;;5113664;28;20205;-70
2021/11/15 10:28:29;;;;;;;39.90;20.50;;;6.60;99.90;;;;;;5111967;28;20233;-70
2021/11/15 10:30:56;;;;;;;41.67;21.80;;;6.60;99.90;;;;;;5109550;28;20296;-70
2021/11/15 10:33:36;;;;;;;39.87;21.63;;;6.60;99.90;;;;;;5106305;28;20269;-70
2021/11/15 10:36:04;;;;;;;38.07;19.73;;;6.60;99.90;;;;;;5107304;28;20250;-70
2021/11/15 10:38:44;;;;;;;42.23;20.23;;;6.60;99.90;;;;;;5105483;28;20254;-70
2021/11/15 10:41:16;;;;;;;38.17;20.07;;;6.60;99.90;;;;;;5106821;28;20216;-70
2021/11/15 10:43:43;;;;;;;39.17;20.33;;;6.70;99.90;;;;;;5098432;28;20217;-70
2021/11/15 10:46:27;;;;;;;38.23;19.67;;;6.70;99.90;;;;;;5102225;28;20627;-69
2021/11/15 10:48:59;;;;;;;38.40;20.67;;;6.70;99.90;;;;;;5105906;28;20217;-69
2021/11/15 10:51:48;;;;;;;36.27;19.23;;;6.70;99.90;;;;;;5106268;28;20205;-70
2021/11/15 10:54:34;;;;;;;38.40;20.23;;;6.70;99.90;;;;;;5107380;28;20296;-69
2021/11/15 10:57:28;;;;;;;35.07;20.00;;;6.70;99.90;;;;;;5087183;28;20260;-69
2021/11/15 11:00:34;;;;;;;36.30;20.30;;;6.80;99.90;;;;;;5091238;28;20258;-69
2021/11/15 11:03:10;;;;;;;37.30;21.33;;;6.80;99.90;;;;;;5105800;28;20244;-69
2021/11/15 11:05:41;;;;;;;38.20;20.90;;;6.90;99.90;;;;;;5096232;28;20236;-70
2021/11/15 11:08:15;;;;;;;37.50;20.63;;;6.90;99.90;;;;;;5106380;28;20622;-67
2021/11/15 11:10:52;;;;;;;39.07;21.10;;;6.90;99.90;;;;;;5107979;28;20618;-69
2021/11/15 11:13:21;;;;;;;39.43;20.63;;;6.90;99.90;;;;;;5106262;28;20208;-70
2021/11/15 11:15:51;;;;;;;39.87;22.67;;;6.90;99.90;;;;;;5106418;28;20524;-70
2021/11/15 11:18:22;;;;;;;43.47;22.20;;;6.90;99.90;;;;;;5104205;28;20623;-70
2021/11/15 11:26:44;;;;;;;41.97;22.20;;;6.90;99.90;;;;;;5100739;28;20241;-70
2021/11/15 11:29:15;;;;;;;38.37;20.93;;;6.80;99.90;;;;;;5103120;28;20241;-70
2021/11/15 11:31:46;;;;;;;43.33;22.40;;;6.80;99.90;;;;;;5104312;28;20216;-77
2021/11/15 11:34:14;;;;;;;43.40;22.10;;;6.80;99.90;;;;;;5101557;28;20258;-77
2021/11/15 11:36:42;;;;;;;46.90;24.00;;;6.80;99.90;;;;;;5105352;28;20209;-77
2021/11/15 11:39:11;;;;;;;42.83;24.37;;;6.80;99.90;;;;;;5102913;28;20201;-77
2021/11/15 11:41:39;;;;;;;44.87;23.87;;;6.80;99.90;;;;;;5095357;28;20214;-77
2021/11/15 11:44:09;;;;;;;43.80;24.13;;;6.80;99.90;;;;;;5102947;28;20282;-77
2021/11/15 11:46:37;;;;;;;46.23;23.73;;;6.70;99.90;;;;;;5105909;28;20216;-77
2021/11/15 11:49:08;;;;;;;48.30;24.80;;;6.80;99.90;;;;;;5104574;28;20462;-77
2021/11/15 11:51:36;;;;;;;44.10;24.90;;;6.80;99.90;;;;;;5099607;28;20708;-77
2021/11/15 11:54:23;;;;;;;48.57;25.50;;;6.70;99.90;;;;;;5091924;28;20213;-78
2021/11/15 11:57:09;;;;;;;51.33;25.40;;;6.70;99.90;;;;;;5102669;28;20269;-79
2021/11/15 11:59:39;;;;;;;56.53;27.70;;;6.70;99.90;;;;;;5099020;28;20209;-80
2021/11/15 12:02:08;;;;;;;54.57;27.37;;;6.70;99.90;;;;;;5102715;28;20531;-79
2021/11/15 12:04:48;;;;;;;51.27;28.60;;;6.60;99.90;;;;;;5097316;28;20212;-79
2021/11/15 12:07:30;;;;;;;52.80;28.13;;;6.60;99.90;;;;;;5088302;28;20273;-79
2021/11/15 12:10:00;;;;;;;54.53;29.17;;;6.60;99.90;;;;;;5097661;28;21085;-79
2021/11/15 12:12:47;;;;;;;58.27;29.43;;;6.50;99.90;;;;;;5097720;28;20580;-79
2021/11/15 12:15:38;;;;;;;61.83;29.93;;;6.50;99.90;;;;;;5100468;28;20254;-79
2021/11/15 12:18:15;;;;;;;59.20;30.00;;;6.60;99.90;;;;;;5097450;28;20983;-79
2021/11/15 12:21:17;;;;;;;59.70;29.67;;;6.50;99.90;;;;;;5104793;28;20662;-79
2021/11/15 12:24:07;;;;;;;56.90;30.57;;;6.50;99.90;;;;;;5109001;28;20204;-77
2021/11/15 12:26:41;;;;;;;55.90;30.37;;;6.50;99.90;;;;;;5107136;28;20212;-77
2021/11/15 12:29:25;;;;;;;53.80;28.77;;;6.60;99.90;;;;;;5111499;28;20224;-77
2021/11/15 12:31:54;;;;;;;55.40;29.30;;;6.50;99.90;;;;;;5109613;28;20200;-77
2021/11/15 12:34:23;;;;;;;56.30;30.43;;;6.40;99.90;;;;;;5105636;28;20197;-77
2021/11/15 12:36:54;;;;;;;58.13;30.57;;;6.50;99.90;;;;;;5101414;28;20231;-77
2021/11/15 12:39:23;;;;;;;57.80;30.77;;;6.50;99.90;;;;;;5110271;28;20205;-77
2021/11/15 12:41:53;;;;;;;58.63;30.13;;;6.50;99.90;;;;;;5110230;28;20204;-77
2021/11/15 12:44:39;;;;;;;57.90;28.97;;;6.40;99.90;;;;;;5109121;28;20227;-77
2021/11/15 12:47:18;;;;;;;55.17;28.90;;;6.50;99.90;;;;;;5099892;28;20273;-76
2021/11/15 12:49:51;;;;;;;54.77;28.00;;;6.50;99.90;;;;;;5110891;28;20205;-76
2021/11/15 12:52:34;;;;;;;51.70;26.80;;;6.50;99.90;;;;;;5110114;28;20209;-78
2021/11/15 12:55:06;;;;;;;48.87;26.10;;;6.50;99.90;;;;;;5108528;28;20208;-77